Terminal Aerodrome Forecast
Issued by NWS Cleveland, OH

Home | Current Version | Previous Version | Text Only | Print | Product List | Glossary Off
Versions: 1 2 3 4 5 6 7 8 9 10 11 12 13 14 15

000
FTUS41 KCLE 250958 AAA
TAFCAK
TAF AMD
KCAK 250958Z 2510/2606 24006KT P6SM SCT060
     FM251500 28010KT P6SM BKN035
     FM251800 28010KT P6SM BKN050
     FM252300 26006KT P6SM BKN060=

USA.gov is the U.S. government's official web portal to all federal, state and local government web resources and services.